sensor_id;sensor_type;location;lat;lon;timestamp;temperature;humidity
52187;DHT22;38161;53.020;6.598;2023-04-01T00:02:20;9.60;99.90
52187;DHT22;38161;53.020;6.598;2023-04-01T00:04:46;9.50;99.90
52187;DHT22;38161;53.020;6.598;2023-04-01T00:07:12;9.60;99.90
52187;DHT22;38161;53.020;6.598;2023-04-01T00:09:38;9.60;99.90
52187;DHT22;38161;53.020;6.598;2023-04-01T00:12:04;9.60;99.90
52187;DHT22;38161;53.020;6.598;2023-04-01T00:14:30;9.60;99.90
52187;DHT22;38161;53.020;6.598;2023-04-01T00:16:55;9.50;99.90
52187;DHT22;38161;53.020;6.598;2023-04-01T00:19:22;9.60;99.90
52187;DHT22;38161;53.020;6.598;2023-04-01T00:21:47;9.60;99.90
52187;DHT22;38161;53.020;6.598;2023-04-01T00:24:13;9.60;99.90
52187;DHT22;38161;53.020;6.598;2023-04-01T00:26:39;9.60;99.90
52187;DHT22;38161;53.020;6.598;2023-04-01T00:29:07;9.60;99.90
52187;DHT22;38161;53.020;6.598;2023-04-01T00:31:33;9.50;99.90
52187;DHT22;38161;53.020;6.598;2023-04-01T00:33:59;9.60;99.90
52187;DHT22;38161;53.020;6.598;2023-04-01T00:36:25;9.50;99.90
52187;DHT22;38161;53.020;6.598;2023-04-01T00:38:51;9.60;99.90
52187;DHT22;38161;53.020;6.598;2023-04-01T00:41:20;9.60;99.90
52187;DHT22;38161;53.020;6.598;2023-04-01T00:43:48;9.50;99.90
52187;DHT22;38161;53.020;6.598;2023-04-01T00:46:15;9.50;99.90
52187;DHT22;38161;53.020;6.598;2023-04-01T00:48:49;9.50;99.90
52187;DHT22;38161;53.020;6.598;2023-04-01T00:51:26;9.50;99.90
52187;DHT22;38161;53.020;6.598;2023-04-01T00:53:55;9.50;99.90
52187;DHT22;38161;53.020;6.598;2023-04-01T00:56:27;9.50;99.90
52187;DHT22;38161;53.020;6.598;2023-04-01T00:59:05;9.50;99.90
52187;DHT22;38161;53.020;6.598;2023-04-01T01:01:34;9.50;99.90
52187;DHT22;38161;53.020;6.598;2023-04-01T01:04:01;9.50;99.90
52187;DHT22;38161;53.020;6.598;2023-04-01T01:06:45;9.50;99.90
52187;DHT22;38161;53.020;6.598;2023-04-01T01:09:33;9.50;99.90
52187;DHT22;38161;53.020;6.598;2023-04-01T01:14:56;9.40;99.90
52187;DHT22;38161;53.020;6.598;2023-04-01T01:17:53;9.50;99.90
52187;DHT22;38161;53.020;6.598;2023-04-01T01:20:42;9.50;99.90
52187;DHT22;38161;53.020;6.598;2023-04-01T01:32:16;9.40;99.90
52187;DHT22;38161;53.020;6.598;2023-04-01T01:34:54;9.40;99.90
52187;DHT22;38161;53.020;6.598;2023-04-01T01:37:25;9.40;99.90
52187;DHT22;38161;53.020;6.598;2023-04-01T01:39:56;9.50;99.90
52187;DHT22;38161;53.020;6.598;2023-04-01T01:42:25;9.40;99.90
52187;DHT22;38161;53.020;6.598;2023-04-01T01:44:52;9.40;99.90
52187;DHT22;38161;53.020;6.598;2023-04-01T01:47:19;9.40;99.90
52187;DHT22;38161;53.020;6.598;2023-04-01T01:49:46;9.50;99.90
52187;DHT22;38161;53.020;6.598;2023-04-01T01:52:13;9.50;99.90
52187;DHT22;38161;53.020;6.598;2023-04-01T01:54:52;9.50;99.90
52187;DHT22;38161;53.020;6.598;2023-04-01T01:57:26;9.50;99.90
52187;DHT22;38161;53.020;6.598;2023-04-01T01:59:56;9.40;99.90
52187;DHT22;38161;53.020;6.598;2023-04-01T02:02:25;9.50;99.90
52187;DHT22;38161;53.020;6.598;2023-04-01T02:04:52;9.40;99.90
52187;DHT22;38161;53.020;6.598;2023-04-01T02:07:23;9.50;99.90
52187;DHT22;38161;53.020;6.598;2023-04-01T02:09:50;9.40;99.90
52187;DHT22;38161;53.020;6.598;2023-04-01T02:12:17;9.40;99.90
52187;DHT22;38161;53.020;6.598;2023-04-01T02:14:47;9.40;99.90
52187;DHT22;38161;53.020;6.598;2023-04-01T02:17:21;9.40;99.90
52187;DHT22;38161;53.020;6.598;2023-04-01T02:20:03;9.40;99.90
52187;DHT22;38161;53.020;6.598;2023-04-01T02:22:33;9.40;99.90
52187;DHT22;38161;53.020;6.598;2023-04-01T02:25:05;9.40;99.90
52187;DHT22;38161;53.020;6.598;2023-04-01T02:27:31;9.40;99.90
52187;DHT22;38161;53.020;6.598;2023-04-01T02:29:57;9.40;99.90
52187;DHT22;38161;53.020;6.598;2023-04-01T02:32:24;9.40;99.90
52187;DHT22;38161;53.020;6.598;2023-04-01T02:34:51;9.40;99.90
52187;DHT22;38161;53.020;6.598;2023-04-01T02:37:17;9.40;99.90
52187;DHT22;38161;53.020;6.598;2023-04-01T02:39:43;9.40;99.90
52187;DHT22;38161;53.020;6.598;2023-04-01T02:42:09;9.30;99.90
52187;DHT22;38161;53.020;6.598;2023-04-01T02:44:35;9.40;99.90
52187;DHT22;38161;53.020;6.598;2023-04-01T02:47:00;9.30;99.90
52187;DHT22;38161;53.020;6.598;2023-04-01T02:49:26;9.30;99.90
52187;DHT22;38161;53.020;6.598;2023-04-01T02:51:52;9.30;99.90
52187;DHT22;38161;53.020;6.598;2023-04-01T02:54:18;9.30;99.90
52187;DHT22;38161;53.020;6.598;2023-04-01T02:56:44;9.30;99.90
52187;DHT22;38161;53.020;6.598;2023-04-01T02:59:11;9.30;99.90
52187;DHT22;38161;53.020;6.598;2023-04-01T03:01:37;9.30;99.90
52187;DHT22;38161;53.020;6.598;2023-04-01T03:04:03;9.30;99.90
52187;DHT22;38161;53.020;6.598;2023-04-01T03:06:29;9.30;99.90
52187;DHT22;38161;53.020;6.598;2023-04-01T03:08:55;9.30;99.90
52187;DHT22;38161;53.020;6.598;2023-04-01T03:11:21;9.30;99.90
52187;DHT22;38161;53.020;6.598;2023-04-01T03:13:47;9.20;99.90
52187;DHT22;38161;53.020;6.598;2023-04-01T03:16:14;9.20;99.90
52187;DHT22;38161;53.020;6.598;2023-04-01T03:18:40;9.20;99.90
52187;DHT22;38161;53.020;6.598;2023-04-01T03:21:32;9.20;99.90
52187;DHT22;38161;53.020;6.598;2023-04-01T03:23:58;9.20;99.90
52187;DHT22;38161;53.020;6.598;2023-04-01T03:26:24;9.20;99.90
52187;DHT22;38161;53.020;6.598;2023-04-01T03:28:52;9.20;99.90
52187;DHT22;38161;53.020;6.598;2023-04-01T03:31:18;9.20;99.90
52187;DHT22;38161;53.020;6.598;2023-04-01T03:33:44;9.20;99.90
52187;DHT22;38161;53.020;6.598;2023-04-01T03:36:10;9.20;99.90
52187;DHT22;38161;53.020;6.598;2023-04-01T03:38:41;9.20;99.90
52187;DHT22;38161;53.020;6.598;2023-04-01T03:41:07;9.20;99.90
52187;DHT22;38161;53.020;6.598;2023-04-01T03:43:36;9.20;99.90
52187;DHT22;38161;53.020;6.598;2023-04-01T03:46:02;9.20;99.90
52187;DHT22;38161;53.020;6.598;2023-04-01T03:48:28;9.20;99.90
52187;DHT22;38161;53.020;6.598;2023-04-01T03:50:53;9.20;99.90
52187;DHT22;38161;53.020;6.598;2023-04-01T03:53:19;9.30;99.90
52187;DHT22;38161;53.020;6.598;2023-04-01T03:55:45;9.30;99.90
52187;DHT22;38161;53.020;6.598;2023-04-01T03:58:12;9.20;99.90
52187;DHT22;38161;53.020;6.598;2023-04-01T04:00:37;9.30;99.90
52187;DHT22;38161;53.020;6.598;2023-04-01T04:03:03;9.30;99.90
52187;DHT22;38161;53.020;6.598;2023-04-01T04:05:29;9.30;99.90
52187;DHT22;38161;53.020;6.598;2023-04-01T04:07:55;9.30;99.90
52187;DHT22;38161;53.020;6.598;2023-04-01T04:10:21;9.30;99.90
52187;DHT22;38161;53.020;6.598;2023-04-01T04:12:49;9.30;99.90
52187;DHT22;38161;53.020;6.598;2023-04-01T04:15:15;9.30;99.90
52187;DHT22;38161;53.020;6.598;2023-04-01T04:17:41;9.30;99.90
52187;DHT22;38161;53.020;6.598;2023-04-01T04:20:07;9.30;99.90
52187;DHT22;38161;53.020;6.598;2023-04-01T04:22:34;9.30;99.90
52187;DHT22;38161;53.020;6.598;2023-04-01T04:25:00;9.30;99.90
52187;DHT22;38161;53.020;6.598;2023-04-01T04:27:25;9.30;99.90
52187;DHT22;38161;53.020;6.598;2023-04-01T04:29:51;9.30;99.90
52187;DHT22;38161;53.020;6.598;2023-04-01T04:32:17;9.30;99.90
52187;DHT22;38161;53.020;6.598;2023-04-01T04:34:42;9.30;99.90
52187;DHT22;38161;53.020;6.598;2023-04-01T04:37:08;9.30;99.90
52187;DHT22;38161;53.020;6.598;2023-04-01T04:39:34;9.30;99.90
52187;DHT22;38161;53.020;6.598;2023-04-01T04:42:00;9.30;99.90
52187;DHT22;38161;53.020;6.598;2023-04-01T04:44:26;9.30;99.90
52187;DHT22;38161;53.020;6.598;2023-04-01T04:46:52;9.30;99.90
52187;DHT22;38161;53.020;6.598;2023-04-01T04:49:17;9.30;99.90
52187;DHT22;38161;53.020;6.598;2023-04-01T04:51:44;9.30;99.90
52187;DHT22;38161;53.020;6.598;2023-04-01T04:54:10;9.30;99.90
52187;DHT22;38161;53.020;6.598;2023-04-01T04:56:36;9.30;99.90
52187;DHT22;38161;53.020;6.598;2023-04-01T04:59:02;9.30;99.90
52187;DHT22;38161;53.020;6.598;2023-04-01T05:01:28;9.30;99.90
52187;DHT22;38161;53.020;6.598;2023-04-01T05:03:54;9.30;99.90
52187;DHT22;38161;53.020;6.598;2023-04-01T05:06:19;9.30;99.90
52187;DHT22;38161;53.020;6.598;2023-04-01T05:08:46;9.30;99.90
52187;DHT22;38161;53.020;6.598;2023-04-01T05:11:15;9.30;99.90
52187;DHT22;38161;53.020;6.598;2023-04-01T05:13:42;9.30;99.90
52187;DHT22;38161;53.020;6.598;2023-04-01T05:16:09;9.30;99.90
52187;DHT22;38161;53.020;6.598;2023-04-01T05:18:36;9.30;99.90
52187;DHT22;38161;53.020;6.598;2023-04-01T05:21:01;9.30;99.90
52187;DHT22;38161;53.020;6.598;2023-04-01T05:23:27;9.30;99.90
52187;DHT22;38161;53.020;6.598;2023-04-01T05:25:53;9.30;99.90
52187;DHT22;38161;53.020;6.598;2023-04-01T05:28:19;9.40;99.90
52187;DHT22;38161;53.020;6.598;2023-04-01T05:30:46;9.40;99.90
52187;DHT22;38161;53.020;6.598;2023-04-01T05:33:12;9.40;99.90
52187;DHT22;38161;53.020;6.598;2023-04-01T05:35:38;9.40;99.90
52187;DHT22;38161;53.020;6.598;2023-04-01T05:38:05;9.40;99.90
52187;DHT22;38161;53.020;6.598;2023-04-01T05:40:31;9.40;99.90
52187;DHT22;38161;53.020;6.598;2023-04-01T05:42:58;9.40;99.90
52187;DHT22;38161;53.020;6.598;2023-04-01T05:45:24;9.40;99.90
52187;DHT22;38161;53.020;6.598;2023-04-01T05:47:52;9.40;99.90
52187;DHT22;38161;53.020;6.598;2023-04-01T05:50:18;9.30;99.90
52187;DHT22;38161;53.020;6.598;2023-04-01T05:52:44;9.30;99.90
52187;DHT22;38161;53.020;6.598;2023-04-01T05:55:10;9.30;99.90
52187;DHT22;38161;53.020;6.598;2023-04-01T05:57:36;9.30;99.90
52187;DHT22;38161;53.020;6.598;2023-04-01T06:00:02;9.30;99.90
52187;DHT22;38161;53.020;6.598;2023-04-01T06:02:28;9.30;99.90
52187;DHT22;38161;53.020;6.598;2023-04-01T06:05:11;9.30;99.90
52187;DHT22;38161;53.020;6.598;2023-04-01T06:07:37;9.30;99.90
52187;DHT22;38161;53.020;6.598;2023-04-01T06:10:19;9.30;99.90
52187;DHT22;38161;53.020;6.598;2023-04-01T06:13:03;9.30;99.90
52187;DHT22;38161;53.020;6.598;2023-04-01T06:15:39;9.30;99.90
52187;DHT22;38161;53.020;6.598;2023-04-01T06:46:58;9.30;99.90
52187;DHT22;38161;53.020;6.598;2023-04-01T06:52:20;9.40;99.90
52187;DHT22;38161;53.020;6.598;2023-04-01T06:54:53;9.40;99.90
52187;DHT22;38161;53.020;6.598;2023-04-01T06:57:31;9.40;99.90
52187;DHT22;38161;53.020;6.598;2023-04-01T07:00:11;9.40;99.90
52187;DHT22;38161;53.020;6.598;2023-04-01T07:05:33;9.40;99.90
52187;DHT22;38161;53.020;6.598;2023-04-01T07:08:08;9.50;99.90
52187;DHT22;38161;53.020;6.598;2023-04-01T07:13:20;9.50;99.90
52187;DHT22;38161;53.020;6.598;2023-04-01T07:16:03;9.60;99.90
52187;DHT22;38161;53.020;6.598;2023-04-01T07:18:49;9.60;99.90
52187;DHT22;38161;53.020;6.598;2023-04-01T07:21:48;9.60;99.90
52187;DHT22;38161;53.020;6.598;2023-04-01T07:24:29;9.60;99.90
52187;DHT22;38161;53.020;6.598;2023-04-01T07:26:58;9.70;99.90
52187;DHT22;38161;53.020;6.598;2023-04-01T07:29:25;9.70;99.90
52187;DHT22;38161;53.020;6.598;2023-04-01T07:42:57;9.80;99.90
52187;DHT22;38161;53.020;6.598;2023-04-01T07:51:18;10.00;99.90
52187;DHT22;38161;53.020;6.598;2023-04-01T07:53:49;10.10;99.90
52187;DHT22;38161;53.020;6.598;2023-04-01T07:56:25;10.20;99.90
52187;DHT22;38161;53.020;6.598;2023-04-01T07:59:09;10.30;99.90
52187;DHT22;38161;53.020;6.598;2023-04-01T08:10:21;10.80;99.90
52187;DHT22;38161;53.020;6.598;2023-04-01T08:13:08;10.90;99.90
52187;DHT22;38161;53.020;6.598;2023-04-01T08:16:04;11.00;99.90
52187;DHT22;38161;53.020;6.598;2023-04-01T08:19:00;11.00;99.90
52187;DHT22;38161;53.020;6.598;2023-04-01T08:21:37;11.00;99.90
52187;DHT22;38161;53.020;6.598;2023-04-01T08:26:57;11.10;99.90
52187;DHT22;38161;53.020;6.598;2023-04-01T08:30:03;11.10;99.90
52187;DHT22;38161;53.020;6.598;2023-04-01T08:32:36;11.20;99.90
52187;DHT22;38161;53.020;6.598;2023-04-01T08:35:31;11.10;99.90
52187;DHT22;38161;53.020;6.598;2023-04-01T08:38:11;11.10;99.90
52187;DHT22;38161;53.020;6.598;2023-04-01T08:46:44;10.90;99.90
52187;DHT22;38161;53.020;6.598;2023-04-01T09:02:59;10.70;99.90
52187;DHT22;38161;53.020;6.598;2023-04-01T09:27:27;10.80;99.90
52187;DHT22;38161;53.020;6.598;2023-04-01T09:38:37;10.90;99.90
52187;DHT22;38161;53.020;6.598;2023-04-01T09:41:31;10.90;99.90
52187;DHT22;38161;53.020;6.598;2023-04-01T10:06:36;11.20;99.90
52187;DHT22;38161;53.020;6.598;2023-04-01T10:15:40;10.90;99.90
52187;DHT22;38161;53.020;6.598;2023-04-01T10:20:55;10.70;99.90
52187;DHT22;38161;53.020;6.598;2023-04-01T10:23:51;10.60;99.90
52187;DHT22;38161;53.020;6.598;2023-04-01T10:43:37;10.20;99.90
52187;DHT22;38161;53.020;6.598;2023-04-01T11:10:35;10.00;99.90
52187;DHT22;38161;53.020;6.598;2023-04-01T11:21:39;10.20;99.90
52187;DHT22;38161;53.020;6.598;2023-04-01T11:27:12;10.10;99.90
52187;DHT22;38161;53.020;6.598;2023-04-01T11:32:31;10.00;99.90
52187;DHT22;38161;53.020;6.598;2023-04-01T11:46:19;10.00;99.90
52187;DHT22;38161;53.020;6.598;2023-04-01T11:51:36;10.00;99.90
52187;DHT22;38161;53.020;6.598;2023-04-01T11:59:40;10.00;99.90
52187;DHT22;38161;53.020;6.598;2023-04-01T12:08:21;10.00;99.90
52187;DHT22;38161;53.020;6.598;2023-04-01T12:11:03;10.00;99.90
52187;DHT22;38161;53.020;6.598;2023-04-01T12:13:39;10.10;99.90
52187;DHT22;38161;53.020;6.598;2023-04-01T12:22:17;10.10;99.90
52187;DHT22;38161;53.020;6.598;2023-04-01T12:24:45;10.10;99.90
52187;DHT22;38161;53.020;6.598;2023-04-01T12:30:05;10.10;99.90
52187;DHT22;38161;53.020;6.598;2023-04-01T12:35:18;10.10;99.90
52187;DHT22;38161;53.020;6.598;2023-04-01T12:37:58;10.10;99.90
52187;DHT22;38161;53.020;6.598;2023-04-01T12:43:17;10.00;99.90
52187;DHT22;38161;53.020;6.598;2023-04-01T12:56:16;9.90;99.90
52187;DHT22;38161;53.020;6.598;2023-04-01T13:01:57;9.90;99.90
52187;DHT22;38161;53.020;6.598;2023-04-01T13:11:09;9.40;99.90
52187;DHT22;38161;53.020;6.598;2023-04-01T13:19:13;9.50;99.90
52187;DHT22;38161;53.020;6.598;2023-04-01T13:36:19;9.30;99.90
52187;DHT22;38161;53.020;6.598;2023-04-01T13:41:45;9.30;99.90
52187;DHT22;38161;53.020;6.598;2023-04-01T13:44:22;9.30;99.90
52187;DHT22;38161;53.020;6.598;2023-04-01T13:50:37;9.20;99.90
52187;DHT22;38161;53.020;6.598;2023-04-01T13:53:51;9.20;99.90
52187;DHT22;38161;53.020;6.598;2023-04-01T14:10:43;8.90;99.90
52187;DHT22;38161;53.020;6.598;2023-04-01T14:13:18;8.90;99.90
52187;DHT22;38161;53.020;6.598;2023-04-01T14:18:50;8.90;99.90
52187;DHT22;38161;53.020;6.598;2023-04-01T14:22:18;9.30;99.90
52187;DHT22;38161;53.020;6.598;2023-04-01T14:50:24;8.90;99.90
52187;DHT22;38161;53.020;6.598;2023-04-01T14:53:13;8.80;99.90
52187;DHT22;38161;53.020;6.598;2023-04-01T14:58:14;8.80;99.90
52187;DHT22;38161;53.020;6.598;2023-04-01T15:07:35;8.70;99.90
52187;DHT22;38161;53.020;6.598;2023-04-01T15:10:07;8.70;99.90
52187;DHT22;38161;53.020;6.598;2023-04-01T15:13:13;8.60;99.90
52187;DHT22;38161;53.020;6.598;2023-04-01T15:19:00;8.60;99.90
52187;DHT22;38161;53.020;6.598;2023-04-01T15:21:48;8.60;99.90
52187;DHT22;38161;53.020;6.598;2023-04-01T15:27:20;8.60;99.90
52187;DHT22;38161;53.020;6.598;2023-04-01T15:40:52;8.40;99.90
52187;DHT22;38161;53.020;6.598;2023-04-01T15:43:46;8.40;99.90
52187;DHT22;38161;53.020;6.598;2023-04-01T15:46:39;8.40;99.90
52187;DHT22;38161;53.020;6.598;2023-04-01T15:52:18;8.30;99.90
52187;DHT22;38161;53.020;6.598;2023-04-01T15:55:26;8.30;99.90
52187;DHT22;38161;53.020;6.598;2023-04-01T16:04:06;8.10;99.90
52187;DHT22;38161;53.020;6.598;2023-04-01T16:06:52;8.00;99.90
52187;DHT22;38161;53.020;6.598;2023-04-01T16:11:53;7.90;99.90
52187;DHT22;38161;53.020;6.598;2023-04-01T16:19:52;7.80;99.90
52187;DHT22;38161;53.020;6.598;2023-04-01T16:31:16;7.70;99.90
52187;DHT22;38161;53.020;6.598;2023-04-01T16:34:07;7.60;99.90
52187;DHT22;38161;53.020;6.598;2023-04-01T16:36:54;7.50;99.90
52187;DHT22;38161;53.020;6.598;2023-04-01T16:39:33;7.50;99.90
52187;DHT22;38161;53.020;6.598;2023-04-01T16:44:49;7.50;99.90
52187;DHT22;38161;53.020;6.598;2023-04-01T16:47:20;7.50;99.90
52187;DHT22;38161;53.020;6.598;2023-04-01T16:49:54;7.40;99.90
52187;DHT22;38161;53.020;6.598;2023-04-01T16:52:48;7.40;99.90
52187;DHT22;38161;53.020;6.598;2023-04-01T16:55:19;7.40;99.90
52187;DHT22;38161;53.020;6.598;2023-04-01T16:57:56;7.40;99.90
52187;DHT22;38161;53.020;6.598;2023-04-01T17:00:47;7.30;99.90
52187;DHT22;38161;53.020;6.598;2023-04-01T17:03:22;7.30;99.90
52187;DHT22;38161;53.020;6.598;2023-04-01T17:17:25;7.20;99.90
52187;DHT22;38161;53.020;6.598;2023-04-01T17:20:10;7.20;99.90
52187;DHT22;38161;53.020;6.598;2023-04-01T17:30:53;7.00;99.90
52187;DHT22;38161;53.020;6.598;2023-04-01T17:33:45;7.00;99.90
52187;DHT22;38161;53.020;6.598;2023-04-01T17:41:51;6.90;99.90
52187;DHT22;38161;53.020;6.598;2023-04-01T17:47:43;6.80;99.90
52187;DHT22;38161;53.020;6.598;2023-04-01T17:53:16;6.80;99.90
52187;DHT22;38161;53.020;6.598;2023-04-01T18:10:29;6.60;99.90
52187;DHT22;38161;53.020;6.598;2023-04-01T18:24:33;6.50;99.90
52187;DHT22;38161;53.020;6.598;2023-04-01T18:27:04;6.50;99.90
52187;DHT22;38161;53.020;6.598;2023-04-01T18:29:41;6.50;99.90
52187;DHT22;38161;53.020;6.598;2023-04-01T18:32:27;6.40;99.90
52187;DHT22;38161;53.020;6.598;2023-04-01T18:43:32;6.30;99.90
52187;DHT22;38161;53.020;6.598;2023-04-01T18:46:24;6.30;99.90
52187;DHT22;38161;53.020;6.598;2023-04-01T18:54:18;6.30;99.90
52187;DHT22;38161;53.020;6.598;2023-04-01T18:56:47;6.30;99.90
52187;DHT22;38161;53.020;6.598;2023-04-01T18:59:24;6.20;99.90
52187;DHT22;38161;53.020;6.598;2023-04-01T19:02:14;6.20;99.90
52187;DHT22;38161;53.020;6.598;2023-04-01T19:04:47;6.20;99.90
52187;DHT22;38161;53.020;6.598;2023-04-01T19:15:38;6.10;99.90
52187;DHT22;38161;53.020;6.598;2023-04-01T19:21:07;6.10;99.90
52187;DHT22;38161;53.020;6.598;2023-04-01T19:24:03;6.00;99.90
52187;DHT22;38161;53.020;6.598;2023-04-01T19:29:35;6.00;99.90
52187;DHT22;38161;53.020;6.598;2023-04-01T19:32:43;6.00;99.90
52187;DHT22;38161;53.020;6.598;2023-04-01T19:38:09;6.00;99.90
52187;DHT22;38161;53.020;6.598;2023-04-01T19:52:13;5.90;99.90
52187;DHT22;38161;53.020;6.598;2023-04-01T19:57:23;5.90;99.90
52187;DHT22;38161;53.020;6.598;2023-04-01T20:00:02;5.80;99.90
52187;DHT22;38161;53.020;6.598;2023-04-01T20:02:33;5.80;99.90
52187;DHT22;38161;53.020;6.598;2023-04-01T20:07:56;5.80;99.90
52187;DHT22;38161;53.020;6.598;2023-04-01T20:10:35;5.80;99.90
52187;DHT22;38161;53.020;6.598;2023-04-01T20:16:08;5.70;99.90
52187;DHT22;38161;53.020;6.598;2023-04-01T20:23:43;5.60;99.90
52187;DHT22;38161;53.020;6.598;2023-04-01T20:26:12;5.60;99.90
52187;DHT22;38161;53.020;6.598;2023-04-01T20:29:03;5.60;99.90
52187;DHT22;38161;53.020;6.598;2023-04-01T20:31:42;5.50;99.90
52187;DHT22;38161;53.020;6.598;2023-04-01T20:37:01;5.50;99.90
52187;DHT22;38161;53.020;6.598;2023-04-01T20:42:34;5.40;99.90
52187;DHT22;38161;53.020;6.598;2023-04-01T20:51:05;5.40;99.90
52187;DHT22;38161;53.020;6.598;2023-04-01T20:53:49;5.30;99.90
52187;DHT22;38161;53.020;6.598;2023-04-01T20:56:23;5.40;99.90
52187;DHT22;38161;53.020;6.598;2023-04-01T21:02:09;5.30;99.90
52187;DHT22;38161;53.020;6.598;2023-04-01T21:05:18;5.30;99.90
52187;DHT22;38161;53.020;6.598;2023-04-01T21:21:46;5.30;99.90
52187;DHT22;38161;53.020;6.598;2023-04-01T21:27:16;5.20;99.90
52187;DHT22;38161;53.020;6.598;2023-04-01T21:29:55;5.20;99.90
52187;DHT22;38161;53.020;6.598;2023-04-01T21:32:47;5.20;99.90
52187;DHT22;38161;53.020;6.598;2023-04-01T21:35:44;5.20;99.90
52187;DHT22;38161;53.020;6.598;2023-04-01T21:38:23;5.20;99.90
52187;DHT22;38161;53.020;6.598;2023-04-01T21:41:24;5.20;99.90
52187;DHT22;38161;53.020;6.598;2023-04-01T21:44:10;5.20;99.90
52187;DHT22;38161;53.020;6.598;2023-04-01T21:52:38;5.80;99.90
52187;DHT22;38161;53.020;6.598;2023-04-01T22:06:45;5.10;99.90
52187;DHT22;38161;53.020;6.598;2023-04-01T22:09:39;5.00;99.90
52187;DHT22;38161;53.020;6.598;2023-04-01T22:12:13;5.00;99.90
52187;DHT22;38161;53.020;6.598;2023-04-01T22:17:38;5.00;99.90
52187;DHT22;38161;53.020;6.598;2023-04-01T22:23:08;4.90;99.90
52187;DHT22;38161;53.020;6.598;2023-04-01T22:25:47;4.90;99.90
52187;DHT22;38161;53.020;6.598;2023-04-01T22:29:06;4.90;99.90
52187;DHT22;38161;53.020;6.598;2023-04-01T22:31:38;4.90;99.90
52187;DHT22;38161;53.020;6.598;2023-04-01T22:34:14;4.80;99.90
52187;DHT22;38161;53.020;6.598;2023-04-01T22:39:38;4.80;99.90
52187;DHT22;38161;53.020;6.598;2023-04-01T22:48:08;4.70;99.90
52187;DHT22;38161;53.020;6.598;2023-04-01T22:51:13;4.70;99.90
52187;DHT22;38161;53.020;6.598;2023-04-01T22:54:02;4.70;99.90
52187;DHT22;38161;53.020;6.598;2023-04-01T22:56:37;4.70;99.90
52187;DHT22;38161;53.020;6.598;2023-04-01T22:59:39;4.70;99.90
52187;DHT22;38161;53.020;6.598;2023-04-01T23:02:27;4.70;99.90
52187;DHT22;38161;53.020;6.598;2023-04-01T23:04:57;4.70;99.90
52187;DHT22;38161;53.020;6.598;2023-04-01T23:13:03;4.60;99.90
52187;DHT22;38161;53.020;6.598;2023-04-01T23:15:29;4.60;99.90
52187;DHT22;38161;53.020;6.598;2023-04-01T23:18:03;4.50;99.90
52187;DHT22;38161;53.020;6.598;2023-04-01T23:28:40;4.40;99.90
52187;DHT22;38161;53.020;6.598;2023-04-01T23:31:46;4.40;99.90
52187;DHT22;38161;53.020;6.598;2023-04-01T23:36:53;4.40;99.90
52187;DHT22;38161;53.020;6.598;2023-04-01T23:39:57;4.30;99.90
52187;DHT22;38161;53.020;6.598;2023-04-01T23:42:26;4.30;99.90
52187;DHT22;38161;53.020;6.598;2023-04-01T23:45:03;4.30;99.90
52187;DHT22;38161;53.020;6.598;2023-04-01T23:47:35;4.20;99.90
52187;DHT22;38161;53.020;6.598;2023-04-01T23:50:12;4.20;99.90
52187;DHT22;38161;53.020;6.598;2023-04-01T23:52:46;4.10;99.90
52187;DHT22;38161;53.020;6.598;2023-04-01T23:55:25;4.10;99.90
